Time;durP1;ratioP1;P1;durP2;ratioP2;P2;SDS_P1;SDS_P2;PMS_P1;PMS_P2;Temp;Humidity;BMP_temperature;BMP_pressure;BME280_temperature;BME280_humidity;BME280_pressure;Samples;Min_cycle;Max_cycle;Signal;HPM_P1;HPM_P2
2021/03/22 00:01:23;;;;;;;22.10;7.63;;;;;;;;;;5035305;28;20530;-65
2021/03/22 00:03:51;;;;;;;19.30;7.10;;;;;;;;;;5031773;28;20449;-65
2021/03/22 00:06:17;;;;;;;22.03;8.10;;;;;;;;;;5040827;28;20559;-66
2021/03/22 00:08:44;;;;;;;24.53;7.93;;;;;;;;;;5036469;28;20531;-65
2021/03/22 00:11:11;;;;;;;17.23;7.20;;;;;;;;;;5039523;28;20543;-66
2021/03/22 00:13:38;;;;;;;16.00;7.77;;;;;;;;;;5035488;28;20455;-65
2021/03/22 00:16:06;;;;;;;19.57;7.70;;;;;;;;;;5041245;28;20452;-65
2021/03/22 00:18:34;;;;;;;16.47;7.57;;;;;;;;;;5024408;28;20480;-65
2021/03/22 00:21:01;;;;;;;19.67;8.07;;;;;;;;;;5025199;28;20467;-65
2021/03/22 00:23:28;;;;;;;21.77;7.97;;;;;;;;;;5047234;28;20486;-64
2021/03/22 00:25:55;;;;;;;23.07;7.17;;;;;;;;;;5036313;28;20531;-65
2021/03/22 00:28:22;;;;;;;16.87;8.03;;;;;;;;;;5045395;28;20539;-65
2021/03/22 00:30:49;;;;;;;21.60;8.07;;;;;;;;;;5047467;28;20452;-65
2021/03/22 00:33:16;;;;;;;21.50;8.73;;;;;;;;;;5034826;28;20594;-65
2021/03/22 00:35:43;;;;;;;22.23;7.30;;;;;;;;;;5039081;28;20852;-65
2021/03/22 00:38:12;;;;;;;19.20;7.37;;;;;;;;;;5055058;28;20468;-67
2021/03/22 00:40:40;;;;;;;22.37;8.70;;;;;;;;;;5042593;28;20463;-65
2021/03/22 00:43:07;;;;;;;21.40;7.60;;;;;;;;;;5033500;28;20482;-65
2021/03/22 00:45:33;;;;;;;16.63;7.33;;;;;;;;;;5033997;28;20453;-65
2021/03/22 00:48:00;;;;;;;24.03;8.47;;;;;;;;;;5034497;28;20983;-65
2021/03/22 00:50:29;;;;;;;19.83;7.03;;;;;;;;;;5034458;28;20445;-65
2021/03/22 00:52:56;;;;;;;20.57;7.90;;;;;;;;;;5034769;28;20456;-65
2021/03/22 00:55:23;;;;;;;16.37;7.27;;;;;;;;;;5045670;28;20535;-64
2021/03/22 00:57:51;;;;;;;22.53;7.87;;;;;;;;;;5029050;28;20998;-65
2021/03/22 01:00:20;;;;;;;17.60;7.17;;;;;;;;;;5037153;28;21089;-65
2021/03/22 01:02:47;;;;;;;25.47;8.50;;;;;;;;;;5036913;28;20574;-65
2021/03/22 01:05:14;;;;;;;23.50;7.60;;;;;;;;;;5035334;28;20574;-64
2021/03/22 01:07:41;;;;;;;18.93;8.50;;;;;;;;;;5040020;28;20559;-65
2021/03/22 01:10:09;;;;;;;17.63;7.80;;;;;;;;;;5035180;28;20540;-65
2021/03/22 01:12:37;;;;;;;19.17;7.60;;;;;;;;;;5033148;28;20528;-64
2021/03/22 01:15:05;;;;;;;21.70;7.87;;;;;;;;;;5040547;28;20454;-66
2021/03/22 01:17:31;;;;;;;19.27;7.87;;;;;;;;;;5042439;28;20472;-65
2021/03/22 01:19:58;;;;;;;16.70;8.23;;;;;;;;;;5037830;28;20456;-66
2021/03/22 01:22:25;;;;;;;22.27;7.80;;;;;;;;;;5046667;28;20483;-65
2021/03/22 01:24:51;;;;;;;23.00;7.77;;;;;;;;;;5051425;28;20451;-64
2021/03/22 01:27:18;;;;;;;17.10;6.67;;;;;;;;;;5040523;28;20564;-65
2021/03/22 01:29:46;;;;;;;19.27;8.30;;;;;;;;;;5034465;28;20510;-64
2021/03/22 01:32:13;;;;;;;21.73;8.10;;;;;;;;;;5033550;28;20864;-65
2021/03/22 01:34:40;;;;;;;26.90;8.47;;;;;;;;;;5041965;28;20448;-65
2021/03/22 01:37:07;;;;;;;20.70;7.60;;;;;;;;;;5043614;28;20542;-65
2021/03/22 01:39:37;;;;;;;24.17;7.87;;;;;;;;;;5033904;28;20449;-65
2021/03/22 01:42:08;;;;;;;19.70;7.50;;;;;;;;;;5048871;28;20475;-65
2021/03/22 01:44:36;;;;;;;16.50;8.27;;;;;;;;;;5040099;28;20527;-64
2021/03/22 01:47:05;;;;;;;23.13;8.10;;;;;;;;;;5052094;28;20482;-65
2021/03/22 01:49:35;;;;;;;22.77;8.17;;;;;;;;;;5032061;28;20457;-65
2021/03/22 01:52:02;;;;;;;26.60;9.10;;;;;;;;;;5033432;28;20444;-66
2021/03/22 01:54:28;;;;;;;21.80;7.70;;;;;;;;;;5046265;28;20501;-66
2021/03/22 01:56:56;;;;;;;24.47;8.83;;;;;;;;;;5050137;28;20823;-65
2021/03/22 01:59:27;;;;;;;19.67;7.80;;;;;;;;;;5033340;28;20460;-65
2021/03/22 02:01:55;;;;;;;24.73;8.10;;;;;;;;;;5035010;28;20923;-65
2021/03/22 02:04:23;;;;;;;27.10;8.63;;;;;;;;;;5045688;28;20445;-66
2021/03/22 02:06:49;;;;;;;19.53;8.83;;;;;;;;;;5053100;28;20471;-65
2021/03/22 02:09:16;;;;;;;18.93;7.73;;;;;;;;;;5048987;28;20456;-65
2021/03/22 02:11:43;;;;;;;29.93;7.43;;;;;;;;;;5039486;28;20453;-65
2021/03/22 02:14:10;;;;;;;25.57;8.40;;;;;;;;;;5032699;28;20857;-65
2021/03/22 02:16:58;;;;;;;27.10;9.40;;;;;;;;;;5033703;28;20825;-65
2021/03/22 02:19:38;;;;;;;22.57;8.50;;;;;;;;;;5026015;28;21035;-65
2021/03/22 02:22:23;;;;;;;33.27;8.37;;;;;;;;;;5049402;28;20555;-65
2021/03/22 02:25:00;;;;;;;28.27;8.10;;;;;;;;;;5032672;28;20441;-65
2021/03/22 02:27:39;;;;;;;27.30;8.30;;;;;;;;;;5047523;28;20887;-65
2021/03/22 02:30:22;;;;;;;19.90;8.30;;;;;;;;;;5030317;28;20452;-65
2021/03/22 02:32:58;;;;;;;18.80;8.27;;;;;;;;;;5031621;28;20444;-65
2021/03/22 02:35:29;;;;;;;24.90;8.93;;;;;;;;;;5032668;28;20594;-65
2021/03/22 02:37:59;;;;;;;18.33;7.70;;;;;;;;;;5032441;28;20504;-65
2021/03/22 02:40:29;;;;;;;19.53;8.53;;;;;;;;;;5032259;28;20444;-65
2021/03/22 02:42:57;;;;;;;20.40;7.67;;;;;;;;;;5031201;28;20475;-64
2021/03/22 02:45:25;;;;;;;28.70;8.83;;;;;;;;;;5012414;28;20511;-65
2021/03/22 02:47:51;;;;;;;22.20;7.63;;;;;;;;;;5024808;28;20487;-65
2021/03/22 02:50:21;;;;;;;24.97;7.50;;;;;;;;;;5012849;28;20495;-64
2021/03/22 02:53:02;;;;;;;19.03;7.70;;;;;;;;;;5013079;28;20481;-65
2021/03/22 02:55:35;;;;;;;28.27;9.00;;;;;;;;;;5025539;28;20449;-65
2021/03/22 02:58:05;;;;;;;28.73;8.77;;;;;;;;;;5038868;28;20562;-66
2021/03/22 03:00:34;;;;;;;20.57;8.33;;;;;;;;;;5034625;28;21831;-65
2021/03/22 03:03:02;;;;;;;21.30;9.20;;;;;;;;;;5051796;28;20468;-65
2021/03/22 03:05:30;;;;;;;26.63;8.83;;;;;;;;;;5048650;28;20531;-65
2021/03/22 03:07:57;;;;;;;22.80;8.10;;;;;;;;;;5046438;28;20515;-64
2021/03/22 03:10:25;;;;;;;20.00;7.67;;;;;;;;;;5031900;28;20461;-65
2021/03/22 03:12:51;;;;;;;22.37;8.67;;;;;;;;;;5032883;28;20532;-65
2021/03/22 03:15:19;;;;;;;24.13;8.80;;;;;;;;;;5031694;28;20453;-66
2021/03/22 03:17:46;;;;;;;21.10;8.83;;;;;;;;;;5048052;28;21051;-65
2021/03/22 03:20:14;;;;;;;18.43;7.87;;;;;;;;;;5035610;28;20448;-65
2021/03/22 03:22:41;;;;;;;21.73;7.63;;;;;;;;;;5036353;28;20481;-64
2021/03/22 03:25:09;;;;;;;22.50;8.67;;;;;;;;;;5019639;28;20449;-64
2021/03/22 03:27:36;;;;;;;20.50;7.73;;;;;;;;;;5026293;28;20502;-64
2021/03/22 03:30:04;;;;;;;25.43;9.00;;;;;;;;;;5031501;28;20539;-65
2021/03/22 03:32:31;;;;;;;29.50;8.60;;;;;;;;;;5037843;28;20444;-65
2021/03/22 03:34:57;;;;;;;24.23;7.87;;;;;;;;;;5038805;28;20453;-65
2021/03/22 03:37:24;;;;;;;19.97;8.67;;;;;;;;;;5045021;28;20533;-64
2021/03/22 03:39:51;;;;;;;29.30;8.80;;;;;;;;;;5037747;28;20539;-64
2021/03/22 03:42:17;;;;;;;28.50;9.20;;;;;;;;;;5037698;28;20990;-65
2021/03/22 03:44:45;;;;;;;24.50;9.13;;;;;;;;;;5041253;28;20457;-64
2021/03/22 03:47:11;;;;;;;27.90;9.07;;;;;;;;;;5031837;28;21014;-64
2021/03/22 03:49:38;;;;;;;22.27;8.33;;;;;;;;;;5039652;28;20449;-64
2021/03/22 03:52:06;;;;;;;21.90;8.90;;;;;;;;;;5031796;28;20550;-65
2021/03/22 03:54:32;;;;;;;30.03;9.83;;;;;;;;;;5026514;28;20450;-64
2021/03/22 03:57:00;;;;;;;24.67;9.00;;;;;;;;;;5011709;28;20972;-64
2021/03/22 03:59:26;;;;;;;25.37;10.10;;;;;;;;;;5028589;28;20963;-64
2021/03/22 04:01:54;;;;;;;26.60;9.70;;;;;;;;;;5044112;28;20957;-63
2021/03/22 04:04:21;;;;;;;23.37;9.60;;;;;;;;;;5051989;28;20530;-63
2021/03/22 04:06:47;;;;;;;19.90;8.67;;;;;;;;;;5039254;28;21003;-63
2021/03/22 04:09:15;;;;;;;21.97;8.83;;;;;;;;;;5037472;28;20993;-63
2021/03/22 04:11:43;;;;;;;24.37;8.87;;;;;;;;;;5044792;28;20587;-65
2021/03/22 04:14:14;;;;;;;20.60;8.57;;;;;;;;;;5039192;28;20493;-64
2021/03/22 04:16:41;;;;;;;23.83;8.43;;;;;;;;;;5038473;28;21054;-64
2021/03/22 04:19:08;;;;;;;22.97;8.40;;;;;;;;;;5032856;28;20451;-64
2021/03/22 04:21:35;;;;;;;21.43;8.43;;;;;;;;;;5030785;28;20449;-66
2021/03/22 04:24:02;;;;;;;29.07;9.50;;;;;;;;;;5030751;28;20480;-65
2021/03/22 04:26:29;;;;;;;23.37;9.20;;;;;;;;;;5033249;28;20461;-65
2021/03/22 04:28:56;;;;;;;26.63;9.70;;;;;;;;;;5039772;28;20585;-66
2021/03/22 04:31:24;;;;;;;22.53;8.70;;;;;;;;;;5032496;28;20463;-66
2021/03/22 04:33:51;;;;;;;31.30;9.70;;;;;;;;;;5050918;28;21026;-65
2021/03/22 04:36:19;;;;;;;29.83;10.13;;;;;;;;;;5047051;28;20912;-64
2021/03/22 04:38:46;;;;;;;25.50;9.13;;;;;;;;;;5040212;28;20501;-66
2021/03/22 04:41:13;;;;;;;28.10;9.10;;;;;;;;;;5037246;28;20448;-65
2021/03/22 04:43:39;;;;;;;21.77;9.70;;;;;;;;;;5049219;28;20480;-67
2021/03/22 04:46:07;;;;;;;23.27;9.17;;;;;;;;;;5049883;28;20536;-66
2021/03/22 04:48:33;;;;;;;30.77;10.67;;;;;;;;;;5037673;28;21047;-67
2021/03/22 04:51:00;;;;;;;29.17;10.10;;;;;;;;;;5032961;28;20449;-67
2021/03/22 04:53:28;;;;;;;32.37;10.57;;;;;;;;;;5037400;28;20498;-67
2021/03/22 04:55:55;;;;;;;29.67;10.67;;;;;;;;;;5054217;28;20448;-67
2021/03/22 04:58:21;;;;;;;24.77;10.53;;;;;;;;;;5045481;28;20559;-66
2021/03/22 05:00:48;;;;;;;26.40;10.67;;;;;;;;;;5034377;28;20452;-66
2021/03/22 05:03:16;;;;;;;27.53;9.70;;;;;;;;;;5044439;28;20582;-67
2021/03/22 05:05:43;;;;;;;23.40;10.67;;;;;;;;;;5035765;28;20457;-67
2021/03/22 05:08:14;;;;;;;26.83;11.33;;;;;;;;;;5035105;28;20472;-66
2021/03/22 05:10:42;;;;;;;31.83;13.20;;;;;;;;;;5035800;28;20452;-67
2021/03/22 05:13:09;;;;;;;22.93;12.23;;;;;;;;;;5033955;28;20448;-66
2021/03/22 05:15:36;;;;;;;24.30;12.30;;;;;;;;;;5052533;28;20514;-67
2021/03/22 05:18:03;;;;;;;27.43;11.70;;;;;;;;;;5043060;28;20472;-67
2021/03/22 05:20:31;;;;;;;25.83;12.10;;;;;;;;;;5054117;28;20539;-67
2021/03/22 05:22:58;;;;;;;31.90;13.33;;;;;;;;;;5044351;28;20542;-67
2021/03/22 05:25:25;;;;;;;29.73;11.60;;;;;;;;;;5053353;28;21014;-67
2021/03/22 05:27:53;;;;;;;28.40;13.37;;;;;;;;;;5045019;28;20476;-66
2021/03/22 05:30:21;;;;;;;30.63;13.97;;;;;;;;;;5054067;28;20497;-66
2021/03/22 05:32:47;;;;;;;22.30;12.40;;;;;;;;;;5042617;28;20460;-67
2021/03/22 05:35:17;;;;;;;24.97;13.87;;;;;;;;;;5033986;28;20546;-67
2021/03/22 05:37:44;;;;;;;29.27;12.63;;;;;;;;;;5033361;28;21007;-67
2021/03/22 05:40:12;;;;;;;33.67;13.97;;;;;;;;;;5050677;28;20546;-67
2021/03/22 05:42:44;;;;;;;26.73;12.33;;;;;;;;;;5019546;28;20825;-67
2021/03/22 05:45:25;;;;;;;27.40;14.10;;;;;;;;;;5033435;28;20958;-67
2021/03/22 05:47:58;;;;;;;30.63;12.63;;;;;;;;;;5034958;28;20872;-67
2021/03/22 05:50:29;;;;;;;25.97;12.20;;;;;;;;;;5037516;28;20441;-68
2021/03/22 05:53:03;;;;;;;25.60;13.43;;;;;;;;;;5031564;28;20441;-67
2021/03/22 05:55:44;;;;;;;30.50;14.13;;;;;;;;;;5047509;28;20931;-67
2021/03/22 05:58:21;;;;;;;23.00;13.00;;;;;;;;;;5033010;28;20478;-68
2021/03/22 06:00:51;;;;;;;25.50;12.73;;;;;;;;;;5018314;28;20480;-68
2021/03/22 06:03:20;;;;;;;29.73;14.13;;;;;;;;;;5033206;28;20468;-67
2021/03/22 06:05:49;;;;;;;21.00;11.97;;;;;;;;;;5033693;28;20502;-66
2021/03/22 06:08:21;;;;;;;33.03;12.80;;;;;;;;;;5035350;28;21004;-67
2021/03/22 06:10:49;;;;;;;22.70;12.07;;;;;;;;;;5033308;28;20552;-66
2021/03/22 06:13:17;;;;;;;36.67;11.67;;;;;;;;;;5034237;28;20453;-66
2021/03/22 06:15:50;;;;;;;21.53;12.67;;;;;;;;;;5035613;28;20473;-66
2021/03/22 06:18:21;;;;;;;32.00;12.50;;;;;;;;;;5048286;28;21305;-67
2021/03/22 06:20:48;;;;;;;23.60;12.30;;;;;;;;;;5052777;28;20529;-67
2021/03/22 06:23:19;;;;;;;21.50;12.37;;;;;;;;;;5038842;28;20836;-66
2021/03/22 06:25:45;;;;;;;16.00;11.43;;;;;;;;;;5048838;28;20437;-66
2021/03/22 06:28:20;;;;;;;21.07;12.47;;;;;;;;;;5022846;28;20555;-66
2021/03/22 06:30:54;;;;;;;20.30;11.70;;;;;;;;;;5032952;28;20443;-67
2021/03/22 06:33:26;;;;;;;25.93;12.80;;;;;;;;;;5032192;28;20812;-66
2021/03/22 06:35:53;;;;;;;25.13;11.90;;;;;;;;;;5035688;28;20451;-67
2021/03/22 06:38:20;;;;;;;19.10;12.17;;;;;;;;;;5036775;28;20468;-66
2021/03/22 06:40:46;;;;;;;20.43;12.27;;;;;;;;;;5033685;28;20814;-67
2021/03/22 06:43:15;;;;;;;23.03;11.57;;;;;;;;;;5033090;28;21154;-66
2021/03/22 06:45:43;;;;;;;22.70;11.63;;;;;;;;;;5034673;28;20460;-66
2021/03/22 06:48:14;;;;;;;17.43;11.20;;;;;;;;;;5050719;28;20479;-66
2021/03/22 06:50:42;;;;;;;21.30;12.43;;;;;;;;;;5044785;28;20863;-66
2021/03/22 06:53:09;;;;;;;24.83;12.20;;;;;;;;;;5032505;28;20445;-66
2021/03/22 06:55:39;;;;;;;16.37;10.33;;;;;;;;;;5045345;28;20464;-66
2021/03/22 06:58:06;;;;;;;18.03;10.90;;;;;;;;;;5051844;28;21030;-67
2021/03/22 07:00:33;;;;;;;12.93;4.83;;;;;;;;;;5026307;28;20523;-66
2021/03/22 07:03:01;;;;;;;10.50;4.60;;;;;;;;;;5030910;28;21003;-68
2021/03/22 07:05:33;;;;;;;13.40;5.60;;;;;;;;;;5032739;28;20452;-67
2021/03/22 07:08:01;;;;;;;17.37;5.37;;;;;;;;;;5031845;28;20468;-68
2021/03/22 07:10:29;;;;;;;8.73;4.87;;;;;;;;;;5040731;28;20444;-67
2021/03/22 07:13:10;;;;;;;10.97;5.47;;;;;;;;;;5033211;28;20513;-67
2021/03/22 07:15:38;;;;;;;9.40;5.27;;;;;;;;;;5034374;28;20532;-66
2021/03/22 07:18:06;;;;;;;6.93;4.27;;;;;;;;;;5040916;28;21033;-66
2021/03/22 07:20:34;;;;;;;7.40;4.47;;;;;;;;;;5033310;28;20452;-67
2021/03/22 07:23:11;;;;;;;9.90;4.80;;;;;;;;;;5044728;28;20487;-67
2021/03/22 07:25:40;;;;;;;9.13;4.07;;;;;;;;;;5031907;28;20464;-67
2021/03/22 07:28:11;;;;;;;6.60;3.97;;;;;;;;;;5037193;28;20573;-66
2021/03/22 07:30:39;;;;;;;6.27;3.80;;;;;;;;;;5026512;28;20494;-67
2021/03/22 07:33:11;;;;;;;6.37;3.07;;;;;;;;;;5033549;28;21792;-67
2021/03/22 07:35:49;;;;;;;8.50;4.17;;;;;;;;;;5036210;28;20459;-67
2021/03/22 07:38:21;;;;;;;5.40;3.10;;;;;;;;;;5032986;28;20614;-67
2021/03/22 07:40:51;;;;;;;5.60;2.90;;;;;;;;;;5036222;28;20500;-67
2021/03/22 07:43:29;;;;;;;4.70;3.53;;;;;;;;;;5025118;28;20488;-67
2021/03/22 07:46:00;;;;;;;9.40;3.40;;;;;;;;;;5034154;28;20940;-67
2021/03/22 07:48:39;;;;;;;7.07;3.90;;;;;;;;;;5032849;28;20479;-67
2021/03/22 07:51:12;;;;;;;7.20;3.90;;;;;;;;;;5037276;28;20598;-67
2021/03/22 07:53:44;;;;;;;7.30;3.23;;;;;;;;;;5047746;28;20884;-67
2021/03/22 07:56:13;;;;;;;4.30;3.20;;;;;;;;;;5031759;28;20821;-67
2021/03/22 07:58:48;;;;;;;4.57;2.90;;;;;;;;;;5032261;28;20461;-67
2021/03/22 08:01:18;;;;;;;7.67;2.90;;;;;;;;;;5038538;28;20448;-67
2021/03/22 08:03:55;;;;;;;6.17;3.50;;;;;;;;;;5048016;28;20572;-66
2021/03/22 08:06:30;;;;;;;5.00;2.60;;;;;;;;;;5031063;28;20448;-67
2021/03/22 08:09:03;;;;;;;12.40;7.10;;;;;;;;;;5032521;28;20535;-66
2021/03/22 08:11:34;;;;;;;11.60;6.67;;;;;;;;;;5033379;28;20498;-66
2021/03/22 08:14:06;;;;;;;12.37;6.57;;;;;;;;;;5038581;28;20448;-66
2021/03/22 08:16:44;;;;;;;10.43;6.30;;;;;;;;;;5035972;28;20583;-66
2021/03/22 08:19:14;;;;;;;16.50;6.30;;;;;;;;;;5037142;28;20447;-66
2021/03/22 08:21:43;;;;;;;9.97;6.60;;;;;;;;;;5031084;28;20448;-66
2021/03/22 08:24:13;;;;;;;11.30;6.33;;;;;;;;;;5033803;28;20565;-65
2021/03/22 08:26:52;;;;;;;9.07;5.63;;;;;;;;;;5033398;28;20473;-66
2021/03/22 08:29:21;;;;;;;9.23;6.27;;;;;;;;;;5054723;28;20431;-67
2021/03/22 08:31:51;;;;;;;10.07;6.13;;;;;;;;;;5036973;28;21166;-63
2021/03/22 08:34:20;;;;;;;9.20;6.00;;;;;;;;;;5053645;28;20435;-68
2021/03/22 08:36:50;;;;;;;11.37;6.30;;;;;;;;;;5026193;28;20515;-67
2021/03/22 08:39:23;;;;;;;11.50;6.20;;;;;;;;;;5034075;28;20457;-66
2021/03/22 08:41:55;;;;;;;7.27;6.30;;;;;;;;;;5033868;28;20455;-67
2021/03/22 08:44:24;;;;;;;10.33;6.70;;;;;;;;;;5027189;28;20556;-67
2021/03/22 08:46:52;;;;;;;9.40;5.60;;;;;;;;;;5035606;28;21052;-68
2021/03/22 08:49:26;;;;;;;10.13;6.20;;;;;;;;;;5054762;28;20452;-67
2021/03/22 08:51:54;;;;;;;11.80;4.40;;;;;;;;;;5031700;28;21015;-69
2021/03/22 08:54:24;;;;;;;8.83;4.37;;;;;;;;;;5033059;28;20453;-68
2021/03/22 08:56:54;;;;;;;17.70;4.83;;;;;;;;;;5033814;28;21054;-69
2021/03/22 08:59:21;;;;;;;10.07;3.90;;;;;;;;;;5037358;28;21160;-69
2021/03/22 09:01:48;;;;;;;9.87;3.40;;;;;;;;;;5014858;28;20503;-70
2021/03/22 09:04:29;;;;;;;6.27;3.60;;;;;;;;;;5021707;28;20529;-69
2021/03/22 09:07:00;;;;;;;14.80;3.90;;;;;;;;;;5016918;28;20560;-69
2021/03/22 09:09:29;;;;;;;13.73;3.80;;;;;;;;;;5037257;28;20527;-67
2021/03/22 09:11:57;;;;;;;23.97;4.23;;;;;;;;;;5014340;28;20464;-69
2021/03/22 09:14:32;;;;;;;13.67;3.90;;;;;;;;;;5021536;28;20452;-67
2021/03/22 09:17:00;;;;;;;19.57;4.73;;;;;;;;;;5034149;28;20472;-67
2021/03/22 09:19:42;;;;;;;12.33;4.13;;;;;;;;;;5033684;28;20456;-67
2021/03/22 09:22:27;;;;;;;11.33;4.50;;;;;;;;;;5014291;28;20442;-67
2021/03/22 09:24:54;;;;;;;7.87;3.43;;;;;;;;;;5030411;28;20455;-67
2021/03/22 09:27:29;;;;;;;12.60;3.77;;;;;;;;;;5053603;28;20554;-67
2021/03/22 09:30:11;;;;;;;10.23;3.63;;;;;;;;;;5044323;28;20946;-66
2021/03/22 09:32:42;;;;;;;6.80;3.33;;;;;;;;;;5053945;28;20477;-67
2021/03/22 09:35:27;;;;;;;10.13;3.63;;;;;;;;;;5037258;28;20448;-67
2021/03/22 09:37:55;;;;;;;8.03;3.50;;;;;;;;;;5033531;28;20523;-68
2021/03/22 09:40:41;;;;;;;14.30;3.23;;;;;;;;;;5039824;28;20513;-68
2021/03/22 09:43:13;;;;;;;12.00;3.40;;;;;;;;;;5032445;28;20482;-68
2021/03/22 09:46:03;;;;;;;7.00;4.00;;;;;;;;;;5033512;28;20582;-67
2021/03/22 09:48:32;;;;;;;12.27;4.13;;;;;;;;;;5069380;22;20500;-64
2021/03/22 09:51:14;;;;;;;11.80;4.10;;;;;;;;;;5038406;28;20458;-64
2021/03/22 09:53:50;;;;;;;15.67;4.57;;;;;;;;;;5048080;28;20442;-64
2021/03/22 09:56:24;;;;;;;9.03;3.20;;;;;;;;;;5024901;28;20471;-63
2021/03/22 09:58:51;;;;;;;14.00;3.83;;;;;;;;;;5030336;28;20553;-63
2021/03/22 10:01:39;;;;;;;9.87;3.10;;;;;;;;;;5017892;28;20457;-63
2021/03/22 10:04:29;;;;;;;7.50;3.17;;;;;;;;;;5034812;28;20465;-61
2021/03/22 10:07:01;;;;;;;6.27;2.97;;;;;;;;;;5031474;28;20951;-62
2021/03/22 10:09:30;;;;;;;6.93;4.07;;;;;;;;;;5034180;28;20866;-65
2021/03/22 10:11:58;;;;;;;6.50;4.60;;;;;;;;;;5033569;28;20460;-65
2021/03/22 10:14:33;;;;;;;7.33;4.20;;;;;;;;;;5034797;28;20452;-62
2021/03/22 10:17:00;;;;;;;6.27;3.80;;;;;;;;;;5032960;28;20484;-65
2021/03/22 10:19:29;;;;;;;5.60;3.80;;;;;;;;;;5035415;28;20805;-66
2021/03/22 10:21:57;;;;;;;5.60;4.07;;;;;;;;;;5033522;28;20456;-66
2021/03/22 10:24:33;;;;;;;4.97;3.70;;;;;;;;;;5034701;28;20530;-65
2021/03/22 10:27:00;;;;;;;8.07;3.67;;;;;;;;;;5033065;28;20910;-65
2021/03/22 10:29:28;;;;;;;4.10;3.70;;;;;;;;;;5033956;28;20465;-66
2021/03/22 10:32:03;;;;;;;6.83;4.27;;;;;;;;;;5035227;28;20998;-66
2021/03/22 10:34:32;;;;;;;7.80;4.33;;;;;;;;;;5031470;28;20924;-65
2021/03/22 10:37:04;;;;;;;5.77;4.43;;;;;;;;;;5033185;28;20510;-65
2021/03/22 10:39:32;;;;;;;7.00;4.83;;;;;;;;;;5019562;28;20520;-67
2021/03/22 10:41:59;;;;;;;6.47;4.40;;;;;;;;;;5034178;28;20451;-68
2021/03/22 10:44:26;;;;;;;10.43;4.57;;;;;;;;;;5035223;28;20618;-67
2021/03/22 10:47:04;;;;;;;7.77;4.40;;;;;;;;;;5034321;28;20540;-72
2021/03/22 10:49:32;;;;;;;5.40;3.67;;;;;;;;;;5036983;28;20503;-66
2021/03/22 10:52:01;;;;;;;5.70;3.67;;;;;;;;;;5049946;28;20464;-65
2021/03/22 10:54:40;;;;;;;5.20;3.13;;;;;;;;;;5046180;28;20452;-62
2021/03/22 10:57:07;;;;;;;3.70;3.10;;;;;;;;;;5037050;28;20474;-63
2021/03/22 10:59:36;;;;;;;4.40;3.17;;;;;;;;;;5041636;28;20432;-65
2021/03/22 11:02:17;;;;;;;8.13;3.93;;;;;;;;;;5047666;28;20452;-63
2021/03/22 11:04:46;;;;;;;6.37;3.53;;;;;;;;;;5037002;28;20485;-65
2021/03/22 11:07:15;;;;;;;6.10;3.50;;;;;;;;;;5041474;28;20455;-64
2021/03/22 11:09:52;;;;;;;5.50;3.60;;;;;;;;;;5047357;28;20452;-64
2021/03/22 11:12:18;;;;;;;5.53;3.47;;;;;;;;;;5040859;28;20459;-64
2021/03/22 11:14:45;;;;;;;6.67;3.83;;;;;;;;;;5039551;28;20444;-64
2021/03/22 11:17:14;;;;;;;6.00;3.40;;;;;;;;;;5037579;28;20469;-65
2021/03/22 11:19:41;;;;;;;5.60;1.90;;;;;;;;;;5022199;28;20457;-65
2021/03/22 11:22:26;;;;;;;4.03;2.13;;;;;;;;;;5028556;28;20492;-64
2021/03/22 11:24:54;;;;;;;3.30;2.00;;;;;;;;;;5028467;28;21321;-66
2021/03/22 11:27:22;;;;;;;3.67;1.93;;;;;;;;;;5012664;28;21007;-68
2021/03/22 11:29:51;;;;;;;6.17;2.37;;;;;;;;;;5020728;28;20448;-65
2021/03/22 11:32:19;;;;;;;3.67;1.93;;;;;;;;;;5031653;28;20445;-65
2021/03/22 11:34:47;;;;;;;3.63;1.93;;;;;;;;;;5031081;28;21110;-65
2021/03/22 11:37:16;;;;;;;3.30;2.10;;;;;;;;;;5013086;28;20496;-65
2021/03/22 11:39:44;;;;;;;2.97;1.73;;;;;;;;;;5018169;28;20456;-66
2021/03/22 11:42:28;;;;;;;4.37;2.97;;;;;;;;;;5024922;28;20449;-65
2021/03/22 11:44:55;;;;;;;3.73;2.10;;;;;;;;;;5030160;28;21026;-65
2021/03/22 11:47:26;;;;;;;5.40;2.47;;;;;;;;;;5019875;28;20508;-65
2021/03/22 11:49:53;;;;;;;4.53;2.20;;;;;;;;;;5023647;28;20449;-65
2021/03/22 11:52:21;;;;;;;2.87;1.70;;;;;;;;;;5026334;28;20560;-63
2021/03/22 11:54:49;;;;;;;6.73;3.20;;;;;;;;;;5024250;28;20807;-64
2021/03/22 11:57:18;;;;;;;4.97;3.50;;;;;;;;;;5020354;28;20560;-65
2021/03/22 11:59:48;;;;;;;4.60;3.10;;;;;;;;;;5029204;28;20459;-65
2021/03/22 12:02:21;;;;;;;5.37;3.20;;;;;;;;;;5027918;28;20830;-65
2021/03/22 12:04:51;;;;;;;3.87;2.87;;;;;;;;;;5034935;28;20519;-65
2021/03/22 12:07:32;;;;;;;3.17;2.80;;;;;;;;;;5033965;28;20472;-65
2021/03/22 12:10:00;;;;;;;4.43;3.03;;;;;;;;;;5028819;28;20452;-65
2021/03/22 12:12:26;;;;;;;5.27;3.50;;;;;;;;;;5034698;28;20453;-65
2021/03/22 12:14:53;;;;;;;3.37;2.83;;;;;;;;;;5030959;28;20918;-65
2021/03/22 12:17:22;;;;;;;4.50;3.47;;;;;;;;;;5018173;28;20558;-65
2021/03/22 12:19:48;;;;;;;3.90;3.50;;;;;;;;;;5017648;28;20446;-65
2021/03/22 12:22:16;;;;;;;5.00;3.70;;;;;;;;;;5034821;28;20460;-67
2021/03/22 12:24:42;;;;;;;3.90;3.20;;;;;;;;;;5032359;28;20858;-66
2021/03/22 12:27:14;;;;;;;5.40;3.90;;;;;;;;;;5034357;28;20460;-67
2021/03/22 12:29:41;;;;;;;5.73;3.80;;;;;;;;;;5031026;28;20475;-64
2021/03/22 12:32:08;;;;;;;5.13;3.70;;;;;;;;;;5018385;28;20448;-65
2021/03/22 12:34:34;;;;;;;5.40;3.70;;;;;;;;;;5029888;28;20527;-64
2021/03/22 12:37:01;;;;;;;4.23;3.80;;;;;;;;;;5033563;28;20544;-65
2021/03/22 12:39:29;;;;;;;4.80;3.87;;;;;;;;;;5034367;28;21007;-65
2021/03/22 12:41:58;;;;;;;5.57;4.07;;;;;;;;;;5029411;28;21015;-65
2021/03/22 12:44:26;;;;;;;6.47;4.63;;;;;;;;;;5034715;28;20633;-64
2021/03/22 12:46:53;;;;;;;4.83;4.20;;;;;;;;;;5026586;28;20990;-65
2021/03/22 12:49:21;;;;;;;6.13;4.50;;;;;;;;;;5032074;28;20567;-67
2021/03/22 12:51:48;;;;;;;4.33;3.53;;;;;;;;;;5027892;28;20547;-68
2021/03/22 12:54:14;;;;;;;6.33;4.20;;;;;;;;;;5034565;28;20531;-66
2021/03/22 12:56:41;;;;;;;5.20;4.70;;;;;;;;;;5026083;28;20535;-62
2021/03/22 12:59:17;;;;;;;6.80;4.20;;;;;;;;;;5033218;28;20468;-73
2021/03/22 13:01:44;;;;;;;4.93;4.43;;;;;;;;;;5026045;28;20448;-70
2021/03/22 13:04:11;;;;;;;5.10;3.80;;;;;;;;;;5014724;28;21020;-70
2021/03/22 13:06:38;;;;;;;5.30;4.27;;;;;;;;;;5028859;28;20943;-71
2021/03/22 13:09:05;;;;;;;5.20;3.87;;;;;;;;;;5033793;28;21047;-69
2021/03/22 13:11:31;;;;;;;4.57;3.57;;;;;;;;;;5035027;28;21025;-70
2021/03/22 13:13:58;;;;;;;5.03;3.60;;;;;;;;;;5029713;28;21357;-69
2021/03/22 13:16:24;;;;;;;4.20;3.80;;;;;;;;;;5033355;28;20453;-76
2021/03/22 13:18:52;;;;;;;4.93;3.50;;;;;;;;;;5033297;28;20472;-69
2021/03/22 13:21:19;;;;;;;5.70;3.37;;;;;;;;;;5032060;28;20620;-70
2021/03/22 13:23:47;;;;;;;4.73;3.63;;;;;;;;;;5014154;28;20488;-69
2021/03/22 13:26:14;;;;;;;6.13;4.43;;;;;;;;;;5013986;28;20956;-69
2021/03/22 13:28:43;;;;;;;4.43;3.93;;;;;;;;;;5033449;28;20502;-70
2021/03/22 13:31:11;;;;;;;4.57;3.70;;;;;;;;;;5023626;28;20454;-68
2021/03/22 13:33:39;;;;;;;4.70;3.70;;;;;;;;;;5033196;28;20453;-69
2021/03/22 13:36:10;;;;;;;6.70;3.53;;;;;;;;;;5023893;28;20441;-70
2021/03/22 13:38:36;;;;;;;4.70;3.57;;;;;;;;;;5033047;28;20556;-69
2021/03/22 13:41:04;;;;;;;4.30;3.40;;;;;;;;;;5033843;28;20452;-68
2021/03/22 13:43:32;;;;;;;4.27;3.67;;;;;;;;;;5033327;28;20477;-69
2021/03/22 13:45:59;;;;;;;6.27;4.50;;;;;;;;;;5029320;28;20535;-68
2021/03/22 13:48:27;;;;;;;3.67;3.37;;;;;;;;;;5045337;28;20497;-67
2021/03/22 13:50:54;;;;;;;5.73;4.03;;;;;;;;;;5033164;28;20467;-67
2021/03/22 13:53:24;;;;;;;4.07;3.70;;;;;;;;;;5017676;28;20454;-72
2021/03/22 13:55:51;;;;;;;5.07;3.90;;;;;;;;;;5028843;28;20810;-71
2021/03/22 13:58:19;;;;;;;4.50;4.10;;;;;;;;;;5020275;28;20983;-67
2021/03/22 14:00:48;;;;;;;4.57;4.10;;;;;;;;;;5033104;28;20555;-70
2021/03/22 14:03:14;;;;;;;5.13;4.40;;;;;;;;;;5033335;28;20480;-68
2021/03/22 14:05:41;;;;;;;6.00;4.50;;;;;;;;;;5032614;28;21021;-67
2021/03/22 14:08:08;;;;;;;5.63;4.53;;;;;;;;;;5032981;28;20555;-67
2021/03/22 14:10:35;;;;;;;7.20;4.27;;;;;;;;;;5032186;28;20453;-67
2021/03/22 14:13:02;;;;;;;4.23;3.83;;;;;;;;;;5032757;28;20539;-67
2021/03/22 14:15:30;;;;;;;5.90;4.40;;;;;;;;;;5013518;28;20461;-66
2021/03/22 14:17:56;;;;;;;5.70;4.27;;;;;;;;;;5018198;28;20468;-67
2021/03/22 14:20:23;;;;;;;5.03;3.73;;;;;;;;;;5033396;28;20444;-67
2021/03/22 14:22:50;;;;;;;4.03;3.27;;;;;;;;;;5032887;28;20532;-67
2021/03/22 14:25:18;;;;;;;6.80;3.80;;;;;;;;;;5031779;28;20543;-69
2021/03/22 14:27:45;;;;;;;5.70;3.90;;;;;;;;;;5030481;28;20544;-67
2021/03/22 14:30:15;;;;;;;4.60;4.20;;;;;;;;;;5013567;28;20454;-69
2021/03/22 14:32:41;;;;;;;7.73;4.20;;;;;;;;;;5014432;28;20525;-66
2021/03/22 14:35:08;;;;;;;6.70;4.33;;;;;;;;;;5032802;28;20499;-66
2021/03/22 14:37:35;;;;;;;4.37;3.63;;;;;;;;;;5032660;28;20548;-66
2021/03/22 14:40:02;;;;;;;5.40;3.33;;;;;;;;;;5028796;28;20455;-66
2021/03/22 14:42:28;;;;;;;5.13;3.10;;;;;;;;;;5013256;28;20461;-67
2021/03/22 14:44:56;;;;;;;4.43;3.20;;;;;;;;;;5030801;28;21066;-66
2021/03/22 14:47:23;;;;;;;6.23;4.20;;;;;;;;;;5032491;28;20543;-66